Terminal Aerodrome Forecast
Issued by NWS

Home | Current Version | Previous Version | Text Only | Print | Product List | Glossary Off
Versions: 1 2 3 4 5 6 7 8 9 10

000
FTUS43 KTOP 241700
TAFFOE
TAF
KFOE 241733Z 2418/2518 26012KT P6SM SKC
     FM250200 23006KT P6SM FEW150
     FM251400 18012KT P6SM SCT060 BKN120=

USA.gov is the U.S. government's official web portal to all federal, state and local government web resources and services.